Time;durP1;ratioP1;P1;durP2;ratioP2;P2;SDS_P1;SDS_P2;PMS_P1;PMS_P2;Temp;Humidity;BMP_temperature;BMP_pressure;BME280_temperature;BME280_humidity;BME280_pressure;Samples;Min_cycle;Max_cycle;Signal;HPM_P1;HPM_P2
2021/01/03 00:02:05;;;;;;;8.52;5.53;;;22.60;31.50;;;;;;4988303;28;20027;-44
2021/01/03 00:04:31;;;;;;;7.18;5.50;;;22.60;31.50;;;;;;4995364;28;20503;-43
2021/01/03 00:06:57;;;;;;;7.68;5.28;;;22.60;31.50;;;;;;4966152;28;20070;-44
2021/01/03 00:09:24;;;;;;;8.52;6.15;;;22.60;31.50;;;;;;4989096;28;20097;-43
2021/01/03 00:11:51;;;;;;;6.13;5.07;;;22.60;31.60;;;;;;4994693;28;20034;-44
2021/01/03 00:14:17;;;;;;;7.43;5.55;;;22.60;31.50;;;;;;4991213;28;20050;-42
2021/01/03 00:16:48;;;;;;;7.75;5.13;;;22.60;31.50;;;;;;4989930;28;20038;-42
2021/01/03 00:19:14;;;;;;;6.40;5.10;;;22.60;31.50;;;;;;4990031;28;20038;-44
2021/01/03 00:21:40;;;;;;;6.78;4.78;;;22.60;31.50;;;;;;4995108;28;20104;-43
2021/01/03 00:24:06;;;;;;;6.97;4.95;;;22.60;31.60;;;;;;4993039;28;20078;-41
2021/01/03 00:26:33;;;;;;;7.25;5.57;;;22.60;31.60;;;;;;4988846;28;20026;-43
2021/01/03 00:28:59;;;;;;;6.53;5.35;;;22.60;31.60;;;;;;4994038;28;20034;-43
2021/01/03 00:31:25;;;;;;;7.38;5.35;;;22.50;31.60;;;;;;4978785;28;20440;-43
2021/01/03 00:33:52;;;;;;;7.88;5.05;;;22.50;31.60;;;;;;4987292;28;20026;-43
2021/01/03 00:36:18;;;;;;;6.80;5.22;;;22.50;31.60;;;;;;4997754;28;20426;-44
2021/01/03 00:38:44;;;;;;;7.75;5.63;;;22.50;31.60;;;;;;4992424;28;20034;-46
2021/01/03 00:41:10;;;;;;;6.80;4.95;;;22.50;31.60;;;;;;4998519;28;20361;-44
2021/01/03 00:43:36;;;;;;;7.03;5.07;;;22.50;31.60;;;;;;4997178;28;20480;-43
2021/01/03 00:46:02;;;;;;;7.30;5.50;;;22.50;31.60;;;;;;4994545;28;20459;-43
2021/01/03 00:48:27;;;;;;;7.10;5.45;;;22.50;31.60;;;;;;4992761;28;20081;-43
2021/01/03 00:50:53;;;;;;;5.82;4.70;;;22.50;31.60;;;;;;4992041;28;20039;-45
2021/01/03 00:53:19;;;;;;;6.70;5.43;;;22.50;31.60;;;;;;4986192;28;20035;-41
2021/01/03 00:55:45;;;;;;;6.15;4.97;;;22.50;31.60;;;;;;4991493;28;20054;-43
2021/01/03 00:58:10;;;;;;;7.10;5.18;;;22.40;31.60;;;;;;4991626;28;20046;-42
2021/01/03 01:00:36;;;;;;;7.70;5.85;;;22.40;31.60;;;;;;4981365;28;20166;-45
2021/01/03 01:03:04;;;;;;;6.25;5.05;;;22.40;31.60;;;;;;4993179;28;20039;-42
2021/01/03 01:05:30;;;;;;;7.35;5.50;;;22.40;31.50;;;;;;4990821;28;20043;-42
2021/01/03 01:07:55;;;;;;;7.70;5.90;;;22.40;31.50;;;;;;4982351;28;20030;-42
2021/01/03 01:10:24;;;;;;;6.68;5.20;;;22.40;31.60;;;;;;4985710;28;20033;-45
2021/01/03 01:12:51;;;;;;;6.97;5.55;;;22.40;31.50;;;;;;4979514;28;20357;-43
2021/01/03 01:15:19;;;;;;;6.18;5.10;;;22.40;31.60;;;;;;4986078;28;20378;-42
2021/01/03 01:17:46;;;;;;;6.15;4.85;;;22.40;31.60;;;;;;4990923;28;20065;-43
2021/01/03 01:20:13;;;;;;;6.70;5.18;;;22.40;31.60;;;;;;4979590;28;20145;-43
2021/01/03 01:22:42;;;;;;;6.47;4.78;;;22.40;31.60;;;;;;4997522;28;20046;-43
2021/01/03 01:25:09;;;;;;;5.88;4.65;;;22.40;31.60;;;;;;4993950;28;20140;-42
2021/01/03 01:27:35;;;;;;;7.45;5.18;;;22.40;31.60;;;;;;4997936;28;20291;-43
2021/01/03 01:30:00;;;;;;;6.38;4.88;;;22.30;31.60;;;;;;4988640;28;20023;-42
2021/01/03 01:32:26;;;;;;;7.05;4.75;;;22.30;31.60;;;;;;4993357;28;20050;-42
2021/01/03 01:34:52;;;;;;;6.78;4.97;;;22.30;31.60;;;;;;5004762;28;20030;-43
2021/01/03 01:37:18;;;;;;;6.47;5.32;;;22.30;31.60;;;;;;5004051;28;20117;-42
2021/01/03 01:39:43;;;;;;;5.03;4.22;;;22.30;31.50;;;;;;4996428;28;20425;-43
2021/01/03 01:42:09;;;;;;;7.28;4.75;;;22.30;31.50;;;;;;4996804;28;20038;-42
2021/01/03 01:44:35;;;;;;;6.13;5.00;;;22.30;31.60;;;;;;4988608;28;20042;-42
2021/01/03 01:47:15;;;;;;;6.18;4.93;;;22.30;31.50;;;;;;4981481;28;20077;-42
2021/01/03 01:49:42;;;;;;;6.68;5.43;;;22.30;31.50;;;;;;4997417;28;20030;-43
2021/01/03 01:52:11;;;;;;;6.47;4.78;;;22.30;31.50;;;;;;4994694;28;20053;-43
2021/01/03 01:54:42;;;;;;;6.63;5.30;;;22.30;31.50;;;;;;4996015;28;20026;-42
2021/01/03 01:57:21;;;;;;;6.38;4.60;;;22.30;31.60;;;;;;4997592;28;20038;-42
2021/01/03 01:59:54;;;;;;;6.40;4.85;;;22.20;31.60;;;;;;4987902;28;20109;-44
2021/01/03 02:02:27;;;;;;;5.97;4.93;;;22.20;31.60;;;;;;4982673;28;20038;-43
2021/01/03 02:04:58;;;;;;;6.15;4.70;;;22.20;31.60;;;;;;4982353;28;20426;-43
2021/01/03 02:07:29;;;;;;;5.72;4.47;;;22.20;31.70;;;;;;4981426;28;20038;-42
2021/01/03 02:10:13;;;;;;;5.88;4.85;;;22.20;31.70;;;;;;4996365;28;20101;-42
2021/01/03 02:12:45;;;;;;;6.53;4.95;;;22.20;31.70;;;;;;4990745;28;20062;-41
2021/01/03 02:15:25;;;;;;;6.22;4.70;;;22.20;31.70;;;;;;4989976;28;20030;-42
2021/01/03 02:17:51;;;;;;;6.53;4.60;;;22.10;31.70;;;;;;4992502;28;20093;-42
2021/01/03 02:20:17;;;;;;;5.30;4.10;;;22.20;31.70;;;;;;4985851;28;20093;-41
2021/01/03 02:23:00;;;;;;;5.88;4.70;;;22.20;31.70;;;;;;4980981;28;20030;-43
2021/01/03 02:25:25;;;;;;;6.10;4.78;;;22.20;31.80;;;;;;4980345;28;20050;-42
2021/01/03 02:28:10;;;;;;;5.88;4.57;;;22.10;31.80;;;;;;4977688;28;20035;-42
2021/01/03 02:30:36;;;;;;;6.47;4.40;;;22.10;31.80;;;;;;4995701;28;20034;-44
2021/01/03 02:33:14;;;;;;;5.53;4.40;;;22.10;31.80;;;;;;4984382;28;20030;-41
2021/01/03 02:35:43;;;;;;;5.45;4.38;;;22.10;31.80;;;;;;4981709;28;20046;-43
2021/01/03 02:38:09;;;;;;;7.55;5.20;;;22.10;31.80;;;;;;4988951;28;20038;-43
2021/01/03 02:40:35;;;;;;;4.90;4.15;;;22.00;31.80;;;;;;4995792;28;20037;-43
2021/01/03 02:43:01;;;;;;;6.53;4.72;;;22.10;31.90;;;;;;4995799;28;20053;-42
2021/01/03 02:45:31;;;;;;;6.22;4.63;;;22.10;31.90;;;;;;4996174;28;20085;-45
2021/01/03 02:48:12;;;;;;;8.02;4.88;;;22.10;31.90;;;;;;4981687;28;20505;-46
2021/01/03 02:50:37;;;;;;;6.40;4.65;;;22.00;31.80;;;;;;4976889;28;20031;-43
2021/01/03 02:53:04;;;;;;;6.13;4.75;;;22.10;31.90;;;;;;4988568;28;20553;-43
2021/01/03 02:55:29;;;;;;;6.40;4.82;;;22.00;32.40;;;;;;4976837;28;20031;-46
2021/01/03 02:57:55;;;;;;;6.45;4.80;;;22.00;31.80;;;;;;4989378;28;20369;-43
2021/01/03 03:00:27;;;;;;;7.05;4.78;;;22.00;31.90;;;;;;4991873;28;20096;-44
2021/01/03 03:02:53;;;;;;;6.78;5.32;;;22.00;31.90;;;;;;4988001;28;20049;-44
2021/01/03 03:05:21;;;;;;;7.07;4.60;;;22.00;31.90;;;;;;4992298;28;20370;-45
2021/01/03 03:07:47;;;;;;;6.40;4.50;;;22.00;31.90;;;;;;4981599;28;20145;-49
2021/01/03 03:10:14;;;;;;;5.35;4.45;;;22.00;31.90;;;;;;4992306;28;20054;-48
2021/01/03 03:12:40;;;;;;;6.18;4.90;;;22.00;31.90;;;;;;4985950;28;20520;-45
2021/01/03 03:15:08;;;;;;;6.65;5.22;;;22.00;31.90;;;;;;4994666;28;20034;-45
2021/01/03 03:17:33;;;;;;;6.13;4.82;;;22.00;31.90;;;;;;4986794;28;20066;-49
2021/01/03 03:19:59;;;;;;;8.95;5.35;;;22.00;32.00;;;;;;4973785;28;20066;-47
2021/01/03 03:22:25;;;;;;;6.45;5.30;;;22.00;32.00;;;;;;4994520;28;20030;-49
2021/01/03 03:24:51;;;;;;;6.85;5.32;;;22.00;31.90;;;;;;4982230;28;20026;-45
2021/01/03 03:27:16;;;;;;;6.72;5.18;;;22.00;32.00;;;;;;4978517;28;20026;-43
2021/01/03 03:29:42;;;;;;;7.03;5.07;;;21.90;31.90;;;;;;4982573;28;20027;-43
2021/01/03 03:32:08;;;;;;;7.57;5.55;;;21.90;31.90;;;;;;4981154;28;20100;-43
2021/01/03 03:34:34;;;;;;;7.75;6.40;;;21.90;32.00;;;;;;4985884;28;20038;-43
2021/01/03 03:37:00;;;;;;;7.50;5.47;;;21.90;31.90;;;;;;4984268;28;20038;-41
2021/01/03 03:39:27;;;;;;;7.85;5.60;;;21.90;31.90;;;;;;4978228;28;20038;-44
2021/01/03 03:41:58;;;;;;;8.80;5.93;;;21.90;32.00;;;;;;4978946;28;20080;-42
2021/01/03 03:44:24;;;;;;;7.85;6.00;;;21.90;32.00;;;;;;4988225;28;20130;-43
2021/01/03 03:46:57;;;;;;;7.25;5.47;;;21.90;32.00;;;;;;4975827;28;20034;-45
2021/01/03 03:49:24;;;;;;;7.43;5.25;;;21.90;32.00;;;;;;4982023;28;20339;-43
2021/01/03 03:51:54;;;;;;;7.60;5.95;;;21.90;32.00;;;;;;4991961;28;20050;-43
2021/01/03 03:54:21;;;;;;;7.80;5.72;;;21.80;31.90;;;;;;4988667;28;20061;-43
2021/01/03 03:56:58;;;;;;;6.22;5.00;;;21.80;32.00;;;;;;4995396;28;20034;-43
2021/01/03 03:59:24;;;;;;;8.05;6.10;;;21.80;32.00;;;;;;4980977;28;20034;-42
2021/01/03 04:01:51;;;;;;;7.57;5.78;;;21.80;32.00;;;;;;4977571;28;20053;-43
2021/01/03 04:04:17;;;;;;;7.75;6.30;;;21.80;32.00;;;;;;4994816;28;20096;-44
2021/01/03 04:06:43;;;;;;;7.30;6.10;;;21.80;31.90;;;;;;4992822;28;20369;-43
2021/01/03 04:09:10;;;;;;;8.60;6.63;;;21.80;31.90;;;;;;4980099;28;20042;-43
2021/01/03 04:11:41;;;;;;;8.18;6.55;;;21.80;31.90;;;;;;4975391;28;20457;-44
2021/01/03 04:14:08;;;;;;;8.40;6.22;;;21.80;31.90;;;;;;4995107;28;20030;-42
2021/01/03 04:16:34;;;;;;;7.63;6.15;;;21.80;31.90;;;;;;4974015;28;20089;-43
2021/01/03 04:18:59;;;;;;;8.30;6.28;;;21.80;31.80;;;;;;4994560;28;20042;-44
2021/01/03 04:21:25;;;;;;;8.05;6.07;;;21.80;31.80;;;;;;4994121;28;20033;-42
2021/01/03 04:23:51;;;;;;;8.52;6.40;;;21.80;31.90;;;;;;4976283;28;20077;-42
2021/01/03 04:26:20;;;;;;;8.93;6.45;;;21.70;31.80;;;;;;4975594;28;20438;-41
2021/01/03 04:28:47;;;;;;;8.90;6.60;;;21.70;31.80;;;;;;4980176;28;20039;-41
2021/01/03 04:31:18;;;;;;;8.60;6.63;;;21.70;31.80;;;;;;4974242;28;20046;-41
2021/01/03 04:33:44;;;;;;;9.60;6.97;;;21.70;31.80;;;;;;4976817;28;20058;-44
2021/01/03 04:36:20;;;;;;;8.95;6.32;;;21.70;31.80;;;;;;4981238;28;20172;-42
2021/01/03 04:38:46;;;;;;;8.82;6.25;;;21.70;31.90;;;;;;4983900;28;20415;-43
2021/01/03 04:41:25;;;;;;;7.97;6.13;;;21.70;31.90;;;;;;4994804;28;20089;-43
2021/01/03 04:43:52;;;;;;;10.48;6.93;;;21.70;31.90;;;;;;4991915;28;20402;-44
2021/01/03 04:46:21;;;;;;;9.30;6.90;;;21.70;32.00;;;;;;4975192;28;20041;-44
2021/01/03 04:48:52;;;;;;;8.25;6.07;;;21.70;32.00;;;;;;4961874;28;20026;-42
2021/01/03 04:51:31;;;;;;;8.45;6.45;;;21.70;32.10;;;;;;4984901;28;20030;-43
2021/01/03 04:54:06;;;;;;;8.40;6.50;;;21.70;32.00;;;;;;4993092;28;20097;-43
2021/01/03 04:56:40;;;;;;;9.07;6.70;;;21.70;32.00;;;;;;4994269;28;20520;-43
2021/01/03 04:59:25;;;;;;;9.80;6.57;;;21.70;32.00;;;;;;4987996;28;20039;-42
2021/01/03 05:02:20;;;;;;;7.93;5.60;;;21.70;32.00;;;;;;4992697;28;20045;-45
2021/01/03 05:04:48;;;;;;;8.13;6.20;;;21.60;32.00;;;;;;4981336;28;20568;-44
2021/01/03 05:07:38;;;;;;;8.93;6.38;;;21.60;32.10;;;;;;4955669;28;20427;-44
2021/01/03 05:10:20;;;;;;;7.43;5.82;;;21.60;32.10;;;;;;4961541;28;20349;-44
2021/01/03 05:13:16;;;;;;;9.07;6.68;;;21.60;32.10;;;;;;4966783;28;20170;-43
2021/01/03 05:15:42;;;;;;;8.45;6.35;;;21.60;32.10;;;;;;4955301;29;20112;-42
2021/01/03 05:18:07;;;;;;;8.77;6.32;;;21.60;32.10;;;;;;4955241;29;20446;-45
2021/01/03 05:20:33;;;;;;;8.77;5.97;;;21.60;32.10;;;;;;4955538;28;20037;-44
2021/01/03 05:23:19;;;;;;;10.43;7.22;;;21.60;32.10;;;;;;4958989;29;20383;-45
2021/01/03 05:25:46;;;;;;;8.15;6.55;;;21.60;32.10;;;;;;4957265;29;20426;-43
2021/01/03 05:28:36;;;;;;;7.60;5.93;;;21.60;32.10;;;;;;4958367;29;20031;-45
2021/01/03 05:31:23;;;;;;;8.40;6.25;;;21.60;32.10;;;;;;4954657;29;20039;-41
2021/01/03 05:34:10;;;;;;;8.23;6.78;;;21.50;32.00;;;;;;4957914;28;20134;-43
2021/01/03 05:36:42;;;;;;;8.23;6.57;;;21.50;32.00;;;;;;4958671;29;20040;-42
2021/01/03 05:39:30;;;;;;;7.53;6.30;;;21.50;32.00;;;;;;4957544;28;20054;-43
2021/01/03 05:42:14;;;;;;;8.80;6.30;;;21.60;32.10;;;;;;4958817;29;20039;-46
2021/01/03 05:44:43;;;;;;;7.40;6.10;;;21.50;32.10;;;;;;4958555;28;20082;-45
2021/01/03 05:47:19;;;;;;;8.20;5.97;;;21.50;32.10;;;;;;4957113;29;20031;-45
2021/01/03 05:49:46;;;;;;;7.53;5.90;;;21.50;32.10;;;;;;4958743;29;20121;-45
2021/01/03 05:52:28;;;;;;;8.93;6.90;;;21.50;32.10;;;;;;4958058;29;20031;-46
2021/01/03 05:54:54;;;;;;;8.45;6.20;;;21.50;32.00;;;;;;4955791;29;20110;-44
2021/01/03 05:57:27;;;;;;;7.43;6.47;;;21.50;32.00;;;;;;4957582;28;20032;-44
2021/01/03 05:59:53;;;;;;;9.20;6.40;;;21.50;32.10;;;;;;4958490;29;20027;-43
2021/01/03 06:02:25;;;;;;;8.65;6.35;;;21.50;32.10;;;;;;4958978;28;20411;-43
2021/01/03 06:05:19;;;;;;;8.25;6.30;;;21.50;32.10;;;;;;4959428;28;20354;-44
2021/01/03 06:08:10;;;;;;;8.02;6.43;;;21.50;32.10;;;;;;4988652;28;20346;-44
2021/01/03 06:10:39;;;;;;;7.95;6.30;;;21.40;32.10;;;;;;4977763;28;20038;-42
2021/01/03 06:13:08;;;;;;;7.05;5.93;;;21.50;32.20;;;;;;4979676;28;20505;-43
2021/01/03 06:15:51;;;;;;;7.05;5.75;;;21.50;32.10;;;;;;4989594;28;20556;-43
2021/01/03 06:18:35;;;;;;;8.05;6.18;;;21.40;32.10;;;;;;4986398;28;20041;-42
2021/01/03 06:21:01;;;;;;;7.10;5.97;;;21.40;32.10;;;;;;4979145;28;20034;-42
2021/01/03 06:23:35;;;;;;;6.40;5.70;;;21.40;32.80;;;;;;4983046;28;20050;-43
2021/01/03 06:26:06;;;;;;;6.88;5.68;;;21.40;32.20;;;;;;4985208;28;20042;-43
2021/01/03 06:28:50;;;;;;;7.97;5.90;;;21.40;32.20;;;;;;4986555;28;20027;-44
2021/01/03 06:31:37;;;;;;;8.40;6.22;;;21.40;32.20;;;;;;4993634;28;20092;-43
2021/01/03 06:34:37;;;;;;;7.57;5.82;;;21.40;32.20;;;;;;4992579;28;20031;-43
2021/01/03 06:37:06;;;;;;;7.22;5.97;;;21.40;32.80;;;;;;4985522;28;20095;-43
2021/01/03 06:39:58;;;;;;;7.13;6.18;;;21.40;32.20;;;;;;4995371;28;20034;-43
2021/01/03 06:42:38;;;;;;;8.10;5.97;;;21.40;32.20;;;;;;4984467;28;20042;-43
2021/01/03 06:45:23;;;;;;;7.82;6.20;;;21.40;32.20;;;;;;4977039;28;20026;-45
2021/01/03 06:48:22;;;;;;;7.22;5.93;;;21.40;32.20;;;;;;4983217;28;20506;-44
2021/01/03 06:51:27;;;;;;;6.68;5.57;;;21.40;32.20;;;;;;4985967;28;20034;-43
2021/01/03 06:54:14;;;;;;;7.78;6.07;;;21.40;32.30;;;;;;4959638;28;20503;-46
2021/01/03 06:57:12;;;;;;;6.93;5.75;;;21.40;32.30;;;;;;4991276;28;20413;-44
2021/01/03 06:59:55;;;;;;;7.63;6.20;;;21.40;32.30;;;;;;4977211;28;20088;-43
2021/01/03 07:02:22;;;;;;;6.07;5.40;;;21.30;32.20;;;;;;4986254;28;20100;-46
2021/01/03 07:04:48;;;;;;;6.53;5.60;;;21.30;32.20;;;;;;4995815;28;20041;-42
2021/01/03 07:07:20;;;;;;;7.18;5.38;;;21.30;32.20;;;;;;4984278;28;20046;-42
2021/01/03 07:10:05;;;;;;;6.45;5.70;;;21.30;32.20;;;;;;4994378;28;20065;-43
2021/01/03 07:12:45;;;;;;;6.90;5.78;;;21.30;32.20;;;;;;4995289;28;20444;-48
2021/01/03 07:15:34;;;;;;;6.90;5.40;;;21.30;32.20;;;;;;4978002;28;20043;-50
2021/01/03 07:18:19;;;;;;;6.47;5.55;;;21.30;32.20;;;;;;4978327;28;20445;-48
2021/01/03 07:21:03;;;;;;;6.22;5.00;;;21.30;32.20;;;;;;4976564;28;20099;-48
2021/01/03 07:23:44;;;;;;;6.60;5.10;;;21.30;32.20;;;;;;4989391;28;20055;-48
2021/01/03 07:26:31;;;;;;;7.13;6.13;;;21.30;32.20;;;;;;4977581;28;20038;-51
2021/01/03 07:29:06;;;;;;;7.47;5.68;;;21.30;32.20;;;;;;4982762;28;20164;-46
2021/01/03 07:31:41;;;;;;;8.15;5.75;;;21.30;32.20;;;;;;4990841;28;20473;-44
2021/01/03 07:34:22;;;;;;;6.85;5.53;;;21.30;32.10;;;;;;4982631;28;20092;-42
2021/01/03 07:36:58;;;;;;;6.30;5.15;;;21.30;32.10;;;;;;4989209;28;20050;-45
2021/01/03 07:39:29;;;;;;;6.03;5.00;;;21.20;32.00;;;;;;4986020;28;20064;-49
2021/01/03 07:42:22;;;;;;;6.47;4.72;;;21.20;32.00;;;;;;4995634;28;20042;-50
2021/01/03 07:44:49;;;;;;;6.25;5.07;;;21.20;32.00;;;;;;4992337;28;20058;-50
2021/01/03 07:47:52;;;;;;;5.47;4.57;;;21.20;32.00;;;;;;4994580;28;20042;-50
2021/01/03 07:50:27;;;;;;;6.15;4.57;;;21.20;32.00;;;;;;4978036;28;20117;-48
2021/01/03 07:52:55;;;;;;;6.05;4.63;;;21.20;32.10;;;;;;4981202;28;20057;-45
2021/01/03 07:55:26;;;;;;;6.97;4.82;;;21.20;32.10;;;;;;4994260;28;20331;-44
2021/01/03 07:58:10;;;;;;;5.63;4.38;;;21.20;32.20;;;;;;4992226;28;20035;-46
2021/01/03 08:00:38;;;;;;;6.53;4.50;;;21.20;32.20;;;;;;4993032;28;20038;-46
2021/01/03 08:03:09;;;;;;;4.68;3.95;;;21.20;32.50;;;;;;4974326;28;20057;-52
2021/01/03 08:05:38;;;;;;;4.55;3.75;;;21.30;32.90;;;;;;4992876;28;20038;-44
2021/01/03 08:08:18;;;;;;;5.88;3.80;;;21.30;33.20;;;;;;4983559;28;20037;-47
2021/01/03 08:10:46;;;;;;;6.68;4.10;;;21.40;33.50;;;;;;4992507;28;20038;-48
2021/01/03 08:13:25;;;;;;;4.30;3.70;;;21.40;33.50;;;;;;4993162;28;20088;-51
2021/01/03 08:15:57;;;;;;;5.28;3.78;;;21.50;33.60;;;;;;4994628;28;20030;-45
2021/01/03 08:18:25;;;;;;;4.03;3.28;;;21.70;33.50;;;;;;5001244;28;20053;-50
2021/01/03 08:21:01;;;;;;;4.90;3.88;;;21.90;33.30;;;;;;5006346;28;20475;-51
2021/01/03 08:23:30;;;;;;;4.35;3.65;;;22.00;33.00;;;;;;5004148;28;20038;-47
2021/01/03 08:26:07;;;;;;;4.30;3.53;;;22.30;32.80;;;;;;4998675;28;20481;-49
2021/01/03 08:28:38;;;;;;;4.10;3.60;;;22.50;32.50;;;;;;4999023;28;20034;-48
2021/01/03 08:31:04;;;;;;;4.47;3.70;;;22.60;32.20;;;;;;4991149;28;20428;-50
2021/01/03 08:33:38;;;;;;;4.47;3.78;;;22.80;32.00;;;;;;4995049;28;20449;-51
2021/01/03 08:36:27;;;;;;;4.28;3.58;;;22.90;31.80;;;;;;4982622;28;20042;-45
2021/01/03 08:38:59;;;;;;;4.15;3.40;;;23.10;31.60;;;;;;4993489;28;20026;-51
2021/01/03 08:41:29;;;;;;;5.22;3.70;;;23.20;31.50;;;;;;4994362;28;20513;-52
2021/01/03 08:43:57;;;;;;;4.20;3.47;;;23.40;31.70;;;;;;5001940;28;20093;-48
2021/01/03 08:46:27;;;;;;;4.70;3.55;;;23.50;31.80;;;;;;4992673;28;20408;-47
2021/01/03 08:49:04;;;;;;;4.25;3.55;;;23.60;31.70;;;;;;4986163;28;20453;-45
2021/01/03 08:51:30;;;;;;;3.20;2.85;;;23.80;31.60;;;;;;4989242;28;20521;-47
2021/01/03 08:54:08;;;;;;;4.07;3.60;;;23.80;31.40;;;;;;4990863;28;20129;-49
2021/01/03 08:56:48;;;;;;;4.28;3.45;;;24.00;31.20;;;;;;4987183;28;20437;-46
2021/01/03 08:59:16;;;;;;;4.32;3.50;;;24.00;31.00;;;;;;4989354;28;20350;-45
2021/01/03 09:01:42;;;;;;;5.43;3.45;;;24.10;30.90;;;;;;4969025;28;20053;-46
2021/01/03 09:04:14;;;;;;;3.50;3.17;;;24.20;30.70;;;;;;4991006;28;20092;-45
2021/01/03 09:06:41;;;;;;;3.75;3.15;;;24.30;30.60;;;;;;4979531;28;20047;-51
2021/01/03 09:09:13;;;;;;;3.58;3.08;;;24.30;30.40;;;;;;4987652;28;20026;-46
2021/01/03 09:11:48;;;;;;;3.85;3.25;;;24.40;30.30;;;;;;4986468;28;20034;-44
2021/01/03 09:14:46;;;;;;;3.50;3.15;;;24.40;30.10;;;;;;4986960;28;20121;-45
2021/01/03 09:17:19;;;;;;;3.78;3.17;;;24.50;30.00;;;;;;4991790;28;20054;-48
2021/01/03 09:19:52;;;;;;;4.35;3.08;;;24.60;30.00;;;;;;4987605;28;20050;-47
2021/01/03 09:22:31;;;;;;;4.85;3.45;;;24.60;30.00;;;;;;4982382;28;20053;-46
2021/01/03 09:25:06;;;;;;;5.60;3.00;;;24.60;29.90;;;;;;4992877;28;21456;-48
2021/01/03 09:27:34;;;;;;;3.45;3.05;;;24.60;29.90;;;;;;4981694;28;20031;-45
2021/01/03 09:30:08;;;;;;;3.60;2.95;;;24.70;29.80;;;;;;4992579;28;20400;-46
2021/01/03 09:32:34;;;;;;;3.95;3.03;;;24.70;29.70;;;;;;4985325;28;20058;-50
2021/01/03 09:35:15;;;;;;;3.92;3.03;;;24.70;29.70;;;;;;4979747;28;20105;-48
2021/01/03 09:38:02;;;;;;;4.53;3.22;;;24.70;29.60;;;;;;4992048;28;20042;-46
2021/01/03 09:40:32;;;;;;;3.60;3.20;;;24.70;29.50;;;;;;4988229;28;20405;-44
2021/01/03 09:43:26;;;;;;;3.30;3.00;;;24.70;29.50;;;;;;4987854;28;20100;-47
2021/01/03 09:46:10;;;;;;;4.18;3.20;;;24.80;29.50;;;;;;4985269;28;20397;-46
2021/01/03 09:48:40;;;;;;;3.60;3.08;;;24.80;29.40;;;;;;4990279;28;20023;-45
2021/01/03 09:51:14;;;;;;;4.10;3.13;;;24.80;29.30;;;;;;4993893;28;20296;-43
2021/01/03 09:53:47;;;;;;;4.55;3.38;;;24.80;29.20;;;;;;4993649;28;20023;-45
2021/01/03 09:56:37;;;;;;;4.45;3.17;;;24.80;29.20;;;;;;4996713;28;20029;-44
2021/01/03 09:59:19;;;;;;;3.15;2.85;;;24.80;29.10;;;;;;4997242;28;20101;-42
2021/01/03 10:01:49;;;;;;;3.63;2.70;;;24.80;29.00;;;;;;4992149;28;20093;-44
2021/01/03 10:04:19;;;;;;;2.83;2.53;;;24.90;29.00;;;;;;4995849;28;20038;-48
2021/01/03 10:06:49;;;;;;;2.88;2.58;;;24.90;29.00;;;;;;4996126;28;20038;-44
2021/01/03 10:09:30;;;;;;;4.10;2.90;;;24.90;28.90;;;;;;4987145;28;20038;-42
2021/01/03 10:11:56;;;;;;;3.97;2.88;;;24.90;28.90;;;;;;4983962;28;20458;-42
2021/01/03 10:14:31;;;;;;;3.22;2.70;;;24.90;28.90;;;;;;4980760;28;20462;-44
2021/01/03 10:17:13;;;;;;;4.00;2.90;;;24.90;28.80;;;;;;4980431;28;20443;-45
2021/01/03 10:19:39;;;;;;;3.50;2.58;;;24.90;28.80;;;;;;4987264;28;20039;-43
2021/01/03 10:22:23;;;;;;;2.80;2.47;;;24.90;28.80;;;;;;4987393;28;20027;-43
2021/01/03 10:25:05;;;;;;;3.47;3.08;;;24.80;28.80;;;;;;4988642;28;20113;-44
2021/01/03 10:27:32;;;;;;;2.63;2.38;;;24.80;28.80;;;;;;4983485;28;20031;-44
2021/01/03 10:29:57;;;;;;;3.25;2.70;;;24.90;28.80;;;;;;4995196;28;20030;-47
2021/01/03 10:32:23;;;;;;;5.25;2.30;;;24.90;28.90;;;;;;4996595;28;20109;-44
2021/01/03 10:34:50;;;;;;;2.58;2.38;;;25.00;28.90;;;;;;4986906;28;20085;-44
2021/01/03 10:37:16;;;;;;;12.52;8.00;;;25.00;28.90;;;;;;4987432;28;20042;-55
2021/01/03 10:39:44;;;;;;;12.13;10.00;;;25.00;27.20;;;;;;4982460;28;20393;-58
2021/01/03 10:42:11;;;;;;;11.00;8.98;;;24.80;26.80;;;;;;4982527;28;20122;-44
2021/01/03 10:44:37;;;;;;;7.07;5.28;;;24.60;26.50;;;;;;4982411;28;20041;-43
2021/01/03 10:47:03;;;;;;;5.50;4.50;;;24.50;27.00;;;;;;4993286;28;20034;-43
2021/01/03 10:49:29;;;;;;;5.85;4.90;;;24.50;27.30;;;;;;4986920;28;20213;-41
2021/01/03 10:51:55;;;;;;;7.90;5.70;;;24.60;27.60;;;;;;4983623;28;20119;-46
2021/01/03 10:54:26;;;;;;;7.32;5.20;;;24.60;27.90;;;;;;4962774;28;20038;-43
2021/01/03 10:56:55;;;;;;;7.88;6.32;;;24.70;28.30;;;;;;4977245;28;20077;-46
2021/01/03 10:59:21;;;;;;;8.18;6.25;;;24.80;28.70;;;;;;4960443;28;20066;-41
2021/01/03 11:01:48;;;;;;;7.65;5.95;;;24.80;29.20;;;;;;4977167;28;20038;-46
2021/01/03 11:04:19;;;;;;;8.18;5.70;;;24.90;29.80;;;;;;4984223;28;20045;-46
2021/01/03 11:06:48;;;;;;;7.05;5.40;;;24.90;30.40;;;;;;4991016;28;20374;-43
2021/01/03 11:09:20;;;;;;;8.40;5.93;;;25.00;30.80;;;;;;4965863;28;20031;-42
2021/01/03 11:11:46;;;;;;;10.18;6.30;;;25.00;31.40;;;;;;4957878;28;20031;-44
2021/01/03 11:14:12;;;;;;;8.93;6.30;;;25.10;31.80;;;;;;4969569;28;20026;-42
2021/01/03 11:16:41;;;;;;;7.80;6.13;;;25.10;32.20;;;;;;4976670;28;20037;-42
2021/01/03 11:19:09;;;;;;;10.45;6.50;;;25.10;32.50;;;;;;4964206;28;20046;-40
2021/01/03 11:21:35;;;;;;;11.10;6.85;;;25.20;32.90;;;;;;4957300;28;20039;-41
2021/01/03 11:24:01;;;;;;;10.75;6.30;;;25.20;33.00;;;;;;4962512;28;20052;-40
2021/01/03 11:26:32;;;;;;;9.50;5.63;;;25.20;32.90;;;;;;4970922;28;20041;-45
2021/01/03 11:28:59;;;;;;;6.20;5.22;;;25.20;32.50;;;;;;4966775;28;20071;-44
2021/01/03 11:31:38;;;;;;;7.28;5.18;;;25.10;32.20;;;;;;4964498;28;20023;-46
2021/01/03 11:34:06;;;;;;;6.90;5.13;;;25.00;32.10;;;;;;4977729;28;20041;-44
2021/01/03 11:36:32;;;;;;;6.28;4.93;;;24.90;32.10;;;;;;4962706;28;20047;-46
2021/01/03 11:39:06;;;;;;;5.15;4.65;;;24.80;32.10;;;;;;4960058;28;20031;-44
2021/01/03 11:41:32;;;;;;;6.47;4.53;;;24.70;32.00;;;;;;4964109;28;20038;-46
2021/01/03 11:43:57;;;;;;;7.25;4.47;;;24.60;32.60;;;;;;4959868;28;20051;-50
2021/01/03 11:46:24;;;;;;;6.22;4.63;;;24.50;31.80;;;;;;4964241;28;20033;-49
2021/01/03 11:48:49;;;;;;;6.28;5.43;;;24.40;31.80;;;;;;4957463;28;20102;-59
2021/01/03 11:51:16;;;;;;;9.73;6.90;;;24.30;30.40;;;;;;4979946;28;20462;-45
2021/01/03 11:53:42;;;;;;;6.90;5.60;;;24.10;27.90;;;;;;4957779;28;20038;-44
2021/01/03 11:56:10;;;;;;;4.90;4.03;;;23.60;28.00;;;;;;4970694;28;20163;-44
2021/01/03 11:58:36;;;;;;;4.90;3.97;;;23.40;28.50;;;;;;4973728;28;20049;-46
2021/01/03 12:01:03;;;;;;;4.20;3.33;;;23.30;29.40;;;;;;4973474;28;20019;-46
2021/01/03 12:03:29;;;;;;;4.28;2.85;;;23.30;29.10;;;;;;4972679;28;20042;-52
2021/01/03 12:05:55;;;;;;;3.25;2.55;;;23.30;29.20;;;;;;4971451;28;20027;-50
2021/01/03 12:08:20;;;;;;;3.30;2.60;;;23.30;29.20;;;;;;4991074;28;20042;-47
2021/01/03 12:10:46;;;;;;;2.70;2.28;;;23.30;29.20;;;;;;4983448;28;20445;-54
2021/01/03 12:13:12;;;;;;;6.70;5.28;;;23.40;29.40;;;;;;4981300;28;20438;-46
2021/01/03 12:15:38;;;;;;;4.70;3.80;;;23.30;28.70;;;;;;4986480;28;20034;-46
2021/01/03 12:18:04;;;;;;;7.50;4.25;;;23.10;28.90;;;;;;4977788;28;20037;-57
2021/01/03 12:20:30;;;;;;;12.43;4.93;;;23.10;28.90;;;;;;4980099;28;20030;-45
2021/01/03 12:22:56;;;;;;;6.03;3.70;;;23.00;28.80;;;;;;4985360;28;20041;-49
2021/01/03 12:25:22;;;;;;;6.82;3.55;;;22.80;29.00;;;;;;4979951;28;20030;-46
2021/01/03 12:27:48;;;;;;;4.90;3.28;;;22.90;29.20;;;;;;4982922;28;20334;-50
2021/01/03 12:30:15;;;;;;;4.78;2.88;;;22.80;29.20;;;;;;4985817;28;20027;-44
2021/01/03 12:32:41;;;;;;;6.05;3.10;;;22.90;29.30;;;;;;4981989;28;20315;-44
2021/01/03 12:35:09;;;;;;;4.15;2.40;;;22.90;29.30;;;;;;4986342;28;20122;-44
2021/01/03 12:37:38;;;;;;;4.15;2.60;;;22.90;29.20;;;;;;4985121;28;20030;-44
2021/01/03 12:40:10;;;;;;;6.05;2.90;;;23.00;29.30;;;;;;4989945;28;20031;-44
2021/01/03 12:42:37;;;;;;;4.00;2.75;;;23.00;29.30;;;;;;4988384;28;20443;-45
2021/01/03 12:45:10;;;;;;;3.60;2.53;;;23.00;29.40;;;;;;4981375;28;20031;-47
2021/01/03 12:47:36;;;;;;;3.15;2.63;;;23.00;29.30;;;;;;4990981;28;20030;-47
2021/01/03 12:50:02;;;;;;;3.75;2.60;;;23.00;29.30;;;;;;4978326;28;20373;-45
2021/01/03 12:52:28;;;;;;;3.60;2.53;;;23.00;29.30;;;;;;4990204;28;20031;-45
2021/01/03 12:54:54;;;;;;;4.30;2.70;;;23.00;29.30;;;;;;4992036;28;20426;-51
2021/01/03 12:57:20;;;;;;;3.75;2.60;;;23.10;29.30;;;;;;4994316;28;20498;-50
2021/01/03 12:59:45;;;;;;;3.80;2.88;;;23.10;29.30;;;;;;4992285;28;20434;-48
2021/01/03 13:02:11;;;;;;;3.53;2.60;;;23.00;29.30;;;;;;4988519;28;20041;-47
2021/01/03 13:04:37;;;;;;;3.40;2.45;;;23.00;29.30;;;;;;4993855;28;20113;-45
2021/01/03 13:07:03;;;;;;;4.15;2.92;;;23.10;29.40;;;;;;4992544;28;20138;-47
2021/01/03 13:09:28;;;;;;;3.78;2.80;;;23.10;29.50;;;;;;4980976;28;20053;-50